Time;durP1;ratioP1;P1;durP2;ratioP2;P2;SDS_P1;SDS_P2;PMS_P1;PMS_P2;Temp;Humidity;BMP_temperature;BMP_pressure;BME280_temperature;BME280_humidity;BME280_pressure;Samples;Min_cycle;Max_cycle;Signal;HPM_P1;HPM_P2
2023/11/26 00:01:59;;;;;;;5.22;2.70;;;3.60;99.90;;;;;;5133056;27;20385;-53
2023/11/26 00:04:25;;;;;;;10.55;2.90;;;3.60;99.90;;;;;;5132944;27;20031;-46
2023/11/26 00:06:51;;;;;;;6.55;2.70;;;3.60;99.90;;;;;;5132583;27;20035;-43
2023/11/26 00:09:17;;;;;;;4.55;3.03;;;3.80;99.90;;;;;;5132790;27;20080;-47
2023/11/26 00:11:43;;;;;;;9.25;5.40;;;3.70;99.90;;;;;;5132836;27;20063;-45
2023/11/26 00:14:08;;;;;;;11.50;5.78;;;3.70;99.90;;;;;;5133096;28;20035;-43
2023/11/26 00:16:40;;;;;;;11.35;5.70;;;3.80;99.90;;;;;;5132352;28;20115;-41
2023/11/26 00:19:06;;;;;;;7.28;4.88;;;3.80;99.90;;;;;;5133014;28;20091;-44
2023/11/26 00:21:32;;;;;;;7.32;4.45;;;3.80;99.90;;;;;;5132699;28;20035;-43
2023/11/26 00:23:59;;;;;;;8.93;2.40;;;3.80;99.90;;;;;;5132784;28;20032;-42
2023/11/26 00:26:26;;;;;;;5.70;2.00;;;3.90;99.90;;;;;;5097157;28;20480;-43
2023/11/26 00:28:52;;;;;;;5.45;2.35;;;4.00;99.90;;;;;;5132082;28;20050;-43
2023/11/26 00:31:18;;;;;;;3.78;1.77;;;4.10;99.90;;;;;;5114734;28;20054;-44
2023/11/26 00:33:48;;;;;;;4.43;1.77;;;4.20;99.90;;;;;;5132770;28;20043;-44
2023/11/26 00:36:18;;;;;;;3.13;1.40;;;4.20;99.90;;;;;;5113885;28;20034;-43
2023/11/26 00:38:44;;;;;;;4.40;1.50;;;4.30;99.90;;;;;;5132103;28;20046;-44
2023/11/26 00:41:10;;;;;;;2.35;1.15;;;4.20;99.90;;;;;;5132741;28;20361;-42
2023/11/26 00:43:36;;;;;;;2.55;1.30;;;4.30;99.90;;;;;;5132156;28;20159;-44
2023/11/26 00:46:02;;;;;;;3.38;2.00;;;4.30;99.90;;;;;;5132417;28;20070;-45
2023/11/26 00:48:28;;;;;;;2.25;0.90;;;4.40;99.90;;;;;;5132307;28;20039;-52
2023/11/26 00:50:54;;;;;;;7.30;1.13;;;4.50;99.90;;;;;;5132233;28;20065;-44
2023/11/26 00:53:21;;;;;;;4.45;1.33;;;4.50;99.90;;;;;;5117537;27;20085;-44
2023/11/26 00:55:46;;;;;;;5.50;1.90;;;4.50;99.90;;;;;;5135980;27;20484;-47
2023/11/26 00:58:12;;;;;;;6.03;1.45;;;4.50;99.90;;;;;;5136510;27;20035;-44
2023/11/26 01:00:38;;;;;;;3.38;1.20;;;4.50;99.90;;;;;;5113669;27;20046;-47
2023/11/26 01:03:06;;;;;;;4.35;1.40;;;4.60;99.90;;;;;;5136130;27;20065;-47
2023/11/26 01:05:31;;;;;;;3.30;1.30;;;4.60;99.90;;;;;;5136298;27;20043;-44
2023/11/26 01:07:57;;;;;;;3.25;1.40;;;4.60;99.90;;;;;;5136063;27;20099;-46
2023/11/26 01:10:23;;;;;;;3.47;1.30;;;4.50;99.90;;;;;;5136451;27;20797;-47
2023/11/26 01:12:49;;;;;;;2.90;1.38;;;4.50;99.90;;;;;;5135995;27;20031;-43
2023/11/26 01:15:15;;;;;;;5.07;1.73;;;4.60;99.90;;;;;;5136025;27;20072;-46
2023/11/26 01:17:42;;;;;;;4.25;1.38;;;4.60;99.90;;;;;;5135809;27;20122;-48
2023/11/26 01:20:12;;;;;;;2.88;1.27;;;4.60;99.90;;;;;;5135876;27;20069;-45
2023/11/26 01:22:39;;;;;;;4.22;1.77;;;4.60;99.90;;;;;;5136365;27;20042;-46
2023/11/26 01:25:05;;;;;;;4.82;1.20;;;4.60;99.90;;;;;;5135941;27;20038;-45
2023/11/26 01:27:32;;;;;;;5.28;1.30;;;4.60;99.90;;;;;;5135980;27;20106;-46
2023/11/26 01:29:58;;;;;;;2.47;1.40;;;4.60;99.90;;;;;;5135999;27;20398;-44
2023/11/26 01:32:25;;;;;;;8.10;2.03;;;4.60;99.90;;;;;;5135696;27;20031;-45
2023/11/26 01:34:51;;;;;;;7.93;1.75;;;4.60;99.90;;;;;;5135622;27;20036;-47
2023/11/26 01:37:17;;;;;;;4.22;1.50;;;4.60;99.90;;;;;;5135527;27;20066;-43
2023/11/26 01:39:43;;;;;;;7.18;1.83;;;4.60;99.90;;;;;;5100938;28;20036;-43
2023/11/26 01:42:10;;;;;;;7.80;1.60;;;4.60;99.90;;;;;;5118068;27;20110;-51
2023/11/26 01:44:36;;;;;;;9.35;2.35;;;4.60;99.90;;;;;;5122045;27;20035;-43
2023/11/26 01:47:06;;;;;;;4.22;1.63;;;4.60;99.90;;;;;;5114825;28;20105;-45
2023/11/26 01:49:33;;;;;;;4.35;1.95;;;4.50;99.90;;;;;;5082254;28;20512;-44
2023/11/26 01:52:04;;;;;;;9.02;2.42;;;4.50;99.90;;;;;;5114444;28;20055;-42
2023/11/26 01:54:34;;;;;;;4.95;1.77;;;4.50;99.90;;;;;;5114682;28;20039;-43
2023/11/26 01:57:01;;;;;;;6.40;1.88;;;4.40;99.90;;;;;;5104428;28;20127;-44
2023/11/26 01:59:27;;;;;;;6.15;2.00;;;4.40;99.90;;;;;;5110258;28;20519;-44
2023/11/26 02:01:56;;;;;;;3.97;1.67;;;4.30;99.90;;;;;;5114418;28;20521;-44
2023/11/26 02:04:21;;;;;;;5.05;1.90;;;4.30;99.90;;;;;;5113169;28;20085;-47
2023/11/26 02:06:48;;;;;;;6.00;2.10;;;4.30;99.90;;;;;;5114424;28;20027;-50
2023/11/26 02:09:16;;;;;;;7.38;2.15;;;4.20;99.90;;;;;;5096436;28;20092;-47
2023/11/26 02:11:43;;;;;;;4.55;1.77;;;4.20;99.90;;;;;;5075166;28;20044;-44
2023/11/26 02:14:10;;;;;;;5.82;2.08;;;4.20;99.90;;;;;;5094432;28;20093;-46
2023/11/26 02:16:36;;;;;;;4.60;2.17;;;4.10;99.90;;;;;;5111029;28;20048;-52
2023/11/26 02:19:09;;;;;;;7.30;2.67;;;4.20;99.90;;;;;;5079313;28;20043;-46
2023/11/26 02:21:35;;;;;;;3.80;1.85;;;4.10;99.90;;;;;;5113914;28;20042;-43
2023/11/26 02:24:01;;;;;;;4.22;1.80;;;4.10;99.90;;;;;;5114490;28;20066;-44
2023/11/26 02:26:27;;;;;;;7.47;2.65;;;4.00;99.90;;;;;;5113950;28;20401;-50
2023/11/26 02:28:52;;;;;;;4.03;1.77;;;4.00;99.90;;;;;;5099850;28;20035;-47
2023/11/26 02:31:18;;;;;;;5.38;1.95;;;3.80;99.90;;;;;;5114371;28;20476;-47
2023/11/26 02:33:44;;;;;;;5.75;2.15;;;3.80;99.90;;;;;;5113931;28;20032;-44
2023/11/26 02:36:10;;;;;;;6.90;1.80;;;3.80;99.90;;;;;;5114238;28;20358;-45
2023/11/26 02:38:35;;;;;;;4.32;2.08;;;3.90;99.90;;;;;;5114057;28;20036;-45
2023/11/26 02:41:01;;;;;;;7.13;2.20;;;3.70;99.90;;;;;;5114194;28;20050;-44
2023/11/26 02:43:27;;;;;;;7.47;2.15;;;3.90;99.90;;;;;;5095612;28;20481;-43
2023/11/26 02:45:56;;;;;;;7.82;1.98;;;3.90;99.90;;;;;;5113668;28;20050;-50
2023/11/26 02:48:25;;;;;;;3.55;2.00;;;3.90;99.90;;;;;;5102041;28;20044;-44
2023/11/26 02:50:52;;;;;;;5.47;2.35;;;3.80;99.90;;;;;;5111463;28;20067;-45
2023/11/26 02:53:19;;;;;;;6.00;2.35;;;3.90;99.90;;;;;;5114075;28;20043;-45
2023/11/26 02:55:46;;;;;;;7.65;2.25;;;3.90;99.90;;;;;;5095176;28;20057;-47
2023/11/26 02:58:13;;;;;;;4.88;2.10;;;3.80;99.90;;;;;;5114091;28;20043;-45
2023/11/26 03:00:42;;;;;;;5.38;2.25;;;3.80;99.90;;;;;;5113551;28;20032;-44
2023/11/26 03:03:10;;;;;;;4.30;1.80;;;3.70;99.90;;;;;;5113602;28;20039;-44
2023/11/26 03:05:37;;;;;;;4.35;2.03;;;3.60;99.90;;;;;;5113635;28;20065;-46
2023/11/26 03:08:20;;;;;;;5.38;1.80;;;3.60;99.90;;;;;;5113462;28;20078;-43
2023/11/26 03:13:31;;;;;;;4.07;2.22;;;3.60;99.90;;;;;;5107256;27;20047;-43
2023/11/26 03:15:57;;;;;;;6.65;2.20;;;3.60;99.90;;;;;;5133189;27;20046;-43
2023/11/26 03:18:23;;;;;;;5.90;2.45;;;3.70;99.90;;;;;;5133564;27;20035;-45
2023/11/26 03:20:52;;;;;;;4.65;2.00;;;3.70;99.90;;;;;;5133518;27;20031;-46
2023/11/26 03:23:19;;;;;;;5.75;2.20;;;3.70;99.90;;;;;;5133561;27;20114;-43
2023/11/26 03:25:45;;;;;;;7.05;2.20;;;3.80;99.90;;;;;;5133209;27;20035;-45
2023/11/26 03:28:11;;;;;;;3.83;2.13;;;3.80;99.90;;;;;;5133225;27;20045;-44
2023/11/26 03:30:37;;;;;;;11.05;2.60;;;3.80;99.90;;;;;;5133646;27;20035;-43
2023/11/26 03:33:03;;;;;;;6.28;2.40;;;3.90;99.90;;;;;;5133205;27;20053;-47
2023/11/26 03:35:29;;;;;;;6.18;2.58;;;4.00;99.90;;;;;;5115027;27;20047;-45
2023/11/26 03:37:54;;;;;;;7.32;2.72;;;4.00;99.90;;;;;;5133352;27;20127;-43
2023/11/26 03:40:21;;;;;;;8.35;2.70;;;4.10;99.90;;;;;;5114924;27;20042;-46
2023/11/26 03:42:47;;;;;;;4.55;2.15;;;4.10;99.90;;;;;;5114727;27;20449;-45
2023/11/26 03:45:12;;;;;;;9.35;2.40;;;4.10;99.90;;;;;;5133261;27;20067;-45
2023/11/26 03:47:39;;;;;;;10.55;2.65;;;4.10;99.90;;;;;;5121972;27;20039;-44
2023/11/26 03:50:12;;;;;;;6.82;3.13;;;4.20;99.90;;;;;;5103658;28;20035;-49
2023/11/26 03:52:39;;;;;;;4.95;2.40;;;4.20;99.90;;;;;;5112429;28;20043;-45
2023/11/26 03:55:06;;;;;;;5.93;2.50;;;4.20;99.90;;;;;;5112718;28;20050;-46
2023/11/26 03:57:32;;;;;;;3.70;2.25;;;4.20;99.90;;;;;;5112368;28;20071;-46
2023/11/26 03:59:58;;;;;;;5.25;2.30;;;4.20;99.90;;;;;;5112468;28;20466;-48
2023/11/26 04:02:24;;;;;;;7.35;2.45;;;4.30;99.90;;;;;;5112208;28;20497;-45
2023/11/26 04:04:51;;;;;;;6.32;2.20;;;4.40;99.90;;;;;;5112271;28;20036;-46
2023/11/26 04:07:18;;;;;;;3.55;2.08;;;4.40;99.90;;;;;;5112341;28;20090;-45
2023/11/26 04:09:45;;;;;;;5.20;2.35;;;4.40;99.90;;;;;;5093771;28;20186;-46
2023/11/26 04:12:10;;;;;;;9.05;3.13;;;4.40;99.90;;;;;;5112212;28;20478;-48
2023/11/26 04:14:39;;;;;;;3.60;1.88;;;4.40;99.90;;;;;;5112009;28;20088;-43
2023/11/26 04:17:05;;;;;;;8.40;2.60;;;4.40;99.90;;;;;;5094188;28;20143;-45
2023/11/26 04:19:30;;;;;;;5.47;2.05;;;4.30;99.90;;;;;;5093722;28;20497;-46
2023/11/26 04:21:56;;;;;;;5.03;2.25;;;4.40;99.90;;;;;;5112088;28;20035;-44
2023/11/26 04:24:22;;;;;;;6.20;2.47;;;4.40;99.90;;;;;;5112221;28;20393;-44
2023/11/26 04:26:48;;;;;;;4.65;1.90;;;4.40;99.90;;;;;;5094651;28;20460;-43
2023/11/26 04:29:14;;;;;;;7.03;1.80;;;4.40;99.90;;;;;;5116582;28;20370;-43
2023/11/26 04:31:40;;;;;;;7.97;1.88;;;4.40;99.90;;;;;;5116431;28;20035;-44
2023/11/26 04:34:05;;;;;;;7.97;1.85;;;4.40;99.90;;;;;;5116493;28;20039;-45
2023/11/26 04:36:31;;;;;;;6.88;1.70;;;4.30;99.90;;;;;;5116207;28;20043;-44
2023/11/26 04:38:57;;;;;;;5.03;2.10;;;4.30;99.90;;;;;;5116195;28;20110;-43
2023/11/26 04:41:23;;;;;;;5.82;2.10;;;4.30;99.90;;;;;;5116359;28;20031;-44
2023/11/26 04:43:49;;;;;;;8.43;1.77;;;4.20;99.90;;;;;;5116136;28;20038;-45
2023/11/26 04:46:15;;;;;;;9.65;1.55;;;4.20;99.90;;;;;;5116241;28;20035;-45
2023/11/26 04:48:42;;;;;;;8.43;1.60;;;4.20;99.90;;;;;;5101714;28;20398;-50
2023/11/26 04:51:11;;;;;;;4.97;1.48;;;4.20;99.90;;;;;;5101773;28;20090;-46
2023/11/26 04:53:36;;;;;;;6.35;1.70;;;4.20;99.90;;;;;;5116023;28;20050;-44
2023/11/26 04:56:03;;;;;;;10.82;2.03;;;4.20;99.90;;;;;;5115907;28;20036;-45
2023/11/26 04:58:29;;;;;;;5.55;1.50;;;4.20;99.90;;;;;;5115931;28;20039;-43
2023/11/26 05:00:54;;;;;;;5.32;1.23;;;4.20;99.90;;;;;;5115505;28;20027;-46
2023/11/26 05:03:23;;;;;;;2.75;1.27;;;4.20;99.90;;;;;;5115922;28;20043;-43
2023/11/26 05:05:49;;;;;;;6.00;1.38;;;4.30;99.90;;;;;;5115551;28;20413;-43
2023/11/26 05:08:15;;;;;;;5.63;2.58;;;4.40;99.90;;;;;;5115714;28;20077;-44
2023/11/26 05:10:41;;;;;;;3.58;1.35;;;4.40;99.90;;;;;;5115569;28;20088;-44
2023/11/26 05:13:07;;;;;;;4.43;1.50;;;4.40;99.90;;;;;;5115622;28;20043;-49
2023/11/26 05:15:33;;;;;;;7.70;1.55;;;4.40;99.90;;;;;;5115548;28;20128;-43
2023/11/26 05:17:59;;;;;;;9.70;1.45;;;4.50;99.90;;;;;;5115519;28;20494;-44
2023/11/26 05:20:26;;;;;;;7.38;1.23;;;4.50;99.90;;;;;;5097027;28;20537;-44
2023/11/26 05:22:53;;;;;;;7.10;1.30;;;4.60;99.90;;;;;;5115379;28;20043;-45
2023/11/26 05:25:20;;;;;;;10.23;1.33;;;4.60;99.90;;;;;;5115276;28;20111;-44
2023/11/26 05:27:46;;;;;;;8.93;1.50;;;4.70;99.90;;;;;;5129942;27;20046;-44
2023/11/26 05:30:12;;;;;;;10.73;1.30;;;4.80;99.90;;;;;;5135652;27;20035;-43
2023/11/26 05:32:38;;;;;;;4.65;1.20;;;4.80;99.90;;;;;;5135501;27;20035;-43
2023/11/26 05:35:12;;;;;;;8.02;1.30;;;4.90;99.90;;;;;;5135378;27;20042;-45
2023/11/26 05:37:41;;;;;;;8.35;1.70;;;4.90;99.90;;;;;;5135354;27;20496;-46
2023/11/26 05:40:08;;;;;;;;;;;4.90;99.90;;;;;;5135965;27;20043;-48
2023/11/26 05:42:33;;;;;;;8.52;1.38;;;4.90;99.90;;;;;;5117100;27;19915;-45
2023/11/26 05:44:59;;;;;;;10.10;1.83;;;4.90;99.90;;;;;;5135563;27;20050;-44
2023/11/26 05:47:25;;;;;;;5.85;0.95;;;5.00;99.90;;;;;;5127749;27;20042;-47
2023/11/26 05:49:52;;;;;;;9.15;1.23;;;5.10;99.90;;;;;;5104163;28;20054;-45
2023/11/26 05:52:19;;;;;;;4.65;1.00;;;5.10;99.90;;;;;;5125541;27;20119;-45
2023/11/26 05:54:45;;;;;;;9.02;1.30;;;5.10;99.90;;;;;;5135209;27;20394;-47
2023/11/26 05:57:12;;;;;;;8.40;1.58;;;5.20;99.90;;;;;;5135061;27;20042;-45
2023/11/26 05:59:38;;;;;;;4.57;1.23;;;5.20;99.90;;;;;;5133180;27;20047;-44
2023/11/26 06:02:04;;;;;;;9.45;1.02;;;5.20;99.90;;;;;;5135292;27;20070;-46
2023/11/26 06:04:29;;;;;;;9.43;1.42;;;5.10;99.90;;;;;;5116673;27;20110;-47
2023/11/26 06:06:55;;;;;;;5.28;1.00;;;5.10;99.90;;;;;;5135035;27;20473;-44
2023/11/26 06:09:22;;;;;;;8.48;1.23;;;5.10;99.90;;;;;;5135138;27;20041;-44
2023/11/26 06:11:48;;;;;;;8.60;1.30;;;5.10;99.90;;;;;;5135006;27;20078;-46
2023/11/26 06:14:14;;;;;;;9.38;1.50;;;5.10;99.90;;;;;;5135177;27;20084;-47
2023/11/26 06:16:43;;;;;;;10.65;1.60;;;5.20;99.90;;;;;;5116387;27;20035;-48
2023/11/26 06:19:09;;;;;;;7.30;1.40;;;5.30;99.90;;;;;;5135028;27;20097;-44
2023/11/26 06:21:35;;;;;;;7.90;1.17;;;5.30;99.90;;;;;;5135058;27;20051;-46
2023/11/26 06:24:01;;;;;;;8.82;1.38;;;5.40;99.90;;;;;;5134993;27;20043;-45
2023/11/26 06:26:27;;;;;;;8.68;1.45;;;5.40;99.90;;;;;;5134780;27;20086;-45
2023/11/26 06:28:53;;;;;;;7.22;1.00;;;5.30;99.90;;;;;;5134900;27;20088;-46
2023/11/26 06:31:23;;;;;;;4.78;1.13;;;5.30;99.90;;;;;;5134801;27;20073;-43
2023/11/26 06:33:49;;;;;;;6.88;2.08;;;5.40;99.90;;;;;;5134691;27;20078;-45
2023/11/26 06:36:21;;;;;;;5.15;0.90;;;5.30;99.90;;;;;;5116094;27;20054;-45
2023/11/26 06:38:48;;;;;;;4.43;1.35;;;5.30;99.90;;;;;;5134319;27;20406;-44
2023/11/26 06:41:29;;;;;;;6.13;0.80;;;5.30;99.90;;;;;;5133215;27;20039;-44
2023/11/26 06:43:59;;;;;;;10.98;1.27;;;5.40;99.90;;;;;;5134035;27;20065;-44
2023/11/26 06:46:29;;;;;;;9.05;1.30;;;5.20;99.90;;;;;;5134402;27;20624;-43
2023/11/26 06:48:56;;;;;;;7.97;1.13;;;5.20;99.90;;;;;;5103091;27;20427;-45
2023/11/26 06:51:22;;;;;;;8.18;1.40;;;5.30;99.90;;;;;;5069570;28;20414;-49
2023/11/26 06:53:49;;;;;;;5.63;1.20;;;5.20;99.90;;;;;;5093218;28;20451;-44
2023/11/26 06:56:17;;;;;;;7.82;0.90;;;5.20;99.90;;;;;;5074960;28;20093;-47
2023/11/26 06:58:44;;;;;;;5.72;1.23;;;5.20;99.90;;;;;;5097886;28;20040;-45
2023/11/26 07:01:11;;;;;;;5.40;1.10;;;5.30;99.90;;;;;;5111013;28;20393;-47
2023/11/26 07:03:38;;;;;;;4.97;1.00;;;5.20;99.90;;;;;;5113402;28;20500;-43
2023/11/26 07:06:09;;;;;;;6.13;1.80;;;5.30;99.90;;;;;;5095241;28;20073;-45
2023/11/26 07:08:38;;;;;;;5.97;1.20;;;5.30;99.90;;;;;;5113255;28;20114;-43
2023/11/26 07:11:05;;;;;;;6.22;1.13;;;5.20;99.90;;;;;;5113241;28;20485;-53
2023/11/26 07:13:31;;;;;;;8.55;1.48;;;5.10;99.90;;;;;;5113039;28;20040;-45
2023/11/26 07:15:57;;;;;;;6.40;1.13;;;5.10;99.90;;;;;;5094803;28;20132;-44
2023/11/26 07:18:23;;;;;;;6.72;2.13;;;5.10;99.90;;;;;;5113303;28;20090;-44
2023/11/26 07:20:49;;;;;;;8.25;1.40;;;5.10;99.90;;;;;;5102809;28;20502;-48
2023/11/26 07:23:16;;;;;;;6.75;1.52;;;5.10;99.90;;;;;;5112074;28;20110;-44
2023/11/26 07:25:41;;;;;;;9.60;1.10;;;5.10;99.90;;;;;;5104816;28;20386;-44
2023/11/26 07:28:08;;;;;;;11.80;1.42;;;5.10;99.90;;;;;;5110263;28;20487;-48
2023/11/26 07:30:43;;;;;;;3.95;0.93;;;5.10;99.90;;;;;;5112970;28;20047;-43
2023/11/26 07:33:09;;;;;;;3.50;1.02;;;5.00;99.90;;;;;;5112906;28;20481;-45
2023/11/26 07:35:37;;;;;;;6.90;1.20;;;5.00;99.90;;;;;;5094938;28;20440;-45
2023/11/26 07:38:03;;;;;;;4.45;0.93;;;5.00;99.90;;;;;;5112748;28;20035;-44
2023/11/26 07:40:33;;;;;;;6.50;1.30;;;5.00;99.90;;;;;;5111784;28;20036;-46
2023/11/26 07:42:59;;;;;;;9.77;1.63;;;5.00;99.90;;;;;;5106314;28;20036;-44
2023/11/26 07:45:31;;;;;;;5.57;1.00;;;5.10;99.90;;;;;;5112712;28;20501;-45
2023/11/26 07:47:59;;;;;;;4.13;1.23;;;5.10;99.90;;;;;;5078736;28;20040;-44
2023/11/26 07:50:24;;;;;;;6.35;1.77;;;5.10;99.90;;;;;;5090508;28;20051;-44
2023/11/26 07:52:50;;;;;;;5.32;1.17;;;5.10;99.90;;;;;;5092490;28;20051;-43
2023/11/26 07:55:16;;;;;;;7.43;1.17;;;5.20;99.90;;;;;;5109380;28;20096;-44
2023/11/26 07:57:42;;;;;;;4.90;1.65;;;5.10;99.90;;;;;;5111929;28;20040;-45
2023/11/26 08:00:14;;;;;;;5.35;1.40;;;5.20;99.90;;;;;;5108718;28;20543;-44
2023/11/26 08:02:44;;;;;;;8.55;1.48;;;5.20;99.90;;;;;;5065807;28;20071;-43
2023/11/26 08:05:13;;;;;;;9.07;1.73;;;5.20;99.90;;;;;;5112084;28;20039;-47
2023/11/26 08:07:45;;;;;;;3.53;1.08;;;5.20;99.90;;;;;;5112039;28;20040;-44
2023/11/26 08:10:18;;;;;;;9.55;1.50;;;5.20;99.90;;;;;;5112146;28;20393;-43
2023/11/26 08:12:45;;;;;;;8.00;1.48;;;5.20;99.90;;;;;;5112125;28;20096;-45
2023/11/26 08:15:19;;;;;;;6.03;1.63;;;5.20;99.90;;;;;;5112325;28;20048;-49
2023/11/26 08:17:48;;;;;;;9.18;1.88;;;5.30;99.90;;;;;;5111915;28;20067;-47
2023/11/26 08:20:14;;;;;;;9.98;1.73;;;5.30;99.90;;;;;;5108126;28;20028;-44
2023/11/26 08:22:40;;;;;;;9.45;1.80;;;5.30;99.90;;;;;;5109403;28;20028;-44
2023/11/26 08:25:12;;;;;;;7.43;1.40;;;5.30;99.90;;;;;;5094071;28;20096;-45
2023/11/26 08:27:44;;;;;;;10.05;1.85;;;5.30;99.90;;;;;;5112012;28;20545;-46
2023/11/26 08:30:30;;;;;;;9.70;2.08;;;5.30;99.90;;;;;;5094318;28;20435;-47
2023/11/26 08:33:01;;;;;;;6.25;1.33;;;5.40;99.90;;;;;;5112045;28;20157;-44
2023/11/26 08:35:28;;;;;;;5.85;1.58;;;5.40;99.90;;;;;;5112229;28;20437;-45
2023/11/26 08:37:58;;;;;;;10.57;1.75;;;5.40;99.90;;;;;;5111816;28;20036;-46
2023/11/26 08:40:25;;;;;;;7.65;1.88;;;5.40;99.90;;;;;;5076853;28;20393;-44
2023/11/26 08:42:54;;;;;;;9.93;2.28;;;5.50;99.90;;;;;;5111672;28;20082;-48
2023/11/26 08:45:21;;;;;;;8.73;1.75;;;5.60;99.90;;;;;;5112224;28;20036;-45
2023/11/26 08:47:47;;;;;;;10.60;2.10;;;5.60;99.90;;;;;;5098492;28;20037;-47
2023/11/26 08:50:13;;;;;;;8.70;1.45;;;5.60;99.90;;;;;;5065978;28;20063;-43
2023/11/26 08:52:39;;;;;;;7.30;1.70;;;5.70;99.90;;;;;;5110710;28;20119;-45
2023/11/26 08:55:06;;;;;;;5.88;1.85;;;5.80;99.90;;;;;;5073504;28;20169;-45
2023/11/26 08:57:32;;;;;;;10.68;2.00;;;5.90;99.90;;;;;;5108711;28;20655;-42
2023/11/26 08:59:58;;;;;;;5.78;1.38;;;6.00;99.90;;;;;;5111795;28;20035;-46
2023/11/26 09:02:27;;;;;;;11.68;1.70;;;6.20;99.90;;;;;;5093459;28;20114;-42
2023/11/26 09:04:52;;;;;;;7.78;1.80;;;6.20;99.90;;;;;;5111849;28;20036;-45
2023/11/26 09:07:19;;;;;;;8.77;1.52;;;6.20;99.90;;;;;;5112047;28;20031;-43
2023/11/26 09:09:45;;;;;;;8.02;1.90;;;6.30;99.90;;;;;;5089987;28;20040;-47
2023/11/26 09:12:10;;;;;;;7.82;1.50;;;6.30;99.90;;;;;;5103056;28;20046;-44
2023/11/26 09:14:36;;;;;;;7.32;1.50;;;6.30;99.90;;;;;;5115123;28;20038;-47
2023/11/26 09:17:05;;;;;;;6.70;1.55;;;6.40;99.90;;;;;;5115562;28;20035;-46
2023/11/26 09:19:31;;;;;;;11.57;4.82;;;6.50;99.90;;;;;;5115412;28;20046;-50
2023/11/26 09:22:01;;;;;;;10.68;2.80;;;6.60;99.90;;;;;;5115275;28;20039;-47
2023/11/26 09:24:28;;;;;;;9.70;1.80;;;6.70;99.90;;;;;;5115145;28;20044;-43
2023/11/26 09:26:54;;;;;;;8.57;2.00;;;6.70;99.90;;;;;;5115184;28;20043;-43
2023/11/26 09:29:20;;;;;;;7.63;1.92;;;6.80;99.90;;;;;;5115279;28;20046;-44
2023/11/26 09:31:46;;;;;;;10.85;1.85;;;6.90;99.90;;;;;;5096824;28;20043;-43
2023/11/26 09:34:11;;;;;;;11.90;2.10;;;6.90;99.90;;;;;;5115240;28;20127;-48
2023/11/26 09:36:45;;;;;;;10.65;1.50;;;6.90;99.90;;;;;;5114774;28;20039;-48
2023/11/26 09:39:11;;;;;;;4.95;1.52;;;6.90;99.90;;;;;;5096880;28;20043;-48
2023/11/26 09:41:37;;;;;;;4.72;1.10;;;6.90;99.90;;;;;;5096851;28;20390;-48
2023/11/26 09:44:07;;;;;;;7.35;1.58;;;6.90;99.90;;;;;;5115092;28;20035;-47
2023/11/26 09:46:36;;;;;;;7.30;0.90;;;6.90;99.90;;;;;;5096623;28;20035;-44
2023/11/26 09:49:08;;;;;;;5.50;1.27;;;6.90;99.90;;;;;;5127069;27;20074;-44
2023/11/26 09:51:37;;;;;;;5.22;0.93;;;6.90;99.90;;;;;;5135331;27;20055;-48
2023/11/26 09:54:06;;;;;;;10.57;2.10;;;7.00;99.90;;;;;;5156142;27;20039;-44
2023/11/26 09:56:32;;;;;;;6.40;1.23;;;6.90;99.90;;;;;;5137819;27;20046;-43
2023/11/26 09:58:57;;;;;;;8.63;1.92;;;6.80;99.90;;;;;;5156338;27;20039;-50
2023/11/26 10:01:24;;;;;;;5.68;1.35;;;7.00;99.90;;;;;;5145938;27;20503;-45
2023/11/26 10:03:59;;;;;;;8.93;1.48;;;7.00;99.90;;;;;;5156018;27;20080;-44
2023/11/26 10:06:28;;;;;;;8.90;1.92;;;7.00;99.90;;;;;;5155923;27;20048;-46
2023/11/26 10:08:55;;;;;;;7.25;1.70;;;7.00;99.90;;;;;;5137473;27;20491;-43
2023/11/26 10:11:23;;;;;;;5.95;1.83;;;7.00;99.90;;;;;;5120286;27;20395;-44
2023/11/26 10:13:49;;;;;;;11.98;2.08;;;7.00;99.90;;;;;;5155601;27;20170;-44
2023/11/26 10:16:29;;;;;;;6.15;1.40;;;7.00;99.90;;;;;;5155432;27;20100;-44
2023/11/26 10:18:54;;;;;;;4.05;1.17;;;7.00;99.90;;;;;;5148242;27;20159;-45
2023/11/26 10:21:20;;;;;;;4.82;1.60;;;7.00;99.90;;;;;;5140817;27;20113;-44
2023/11/26 10:23:46;;;;;;;6.95;1.92;;;7.00;99.90;;;;;;5149352;27;20376;-44
2023/11/26 10:26:38;;;;;;;6.63;2.28;;;7.10;99.90;;;;;;5154927;27;20103;-48
2023/11/26 10:29:08;;;;;;;3.97;1.40;;;7.10;99.90;;;;;;5148831;27;20051;-43
2023/11/26 10:31:35;;;;;;;6.85;1.33;;;7.10;99.90;;;;;;5155353;27;20126;-45
2023/11/26 10:34:16;;;;;;;5.63;1.45;;;7.10;99.90;;;;;;5139203;27;20050;-45
2023/11/26 10:36:42;;;;;;;8.50;1.58;;;7.10;99.90;;;;;;5130875;27;20989;-45
2023/11/26 10:39:11;;;;;;;6.18;1.27;;;7.10;99.90;;;;;;5133585;27;20035;-46
2023/11/26 10:41:37;;;;;;;9.70;1.35;;;7.10;99.90;;;;;;5141763;27;20086;-45
2023/11/26 10:47:59;;;;;;;10.60;1.67;;;7.00;99.90;;;;;;5104076;27;20481;-73
2023/11/26 10:50:25;;;;;;;5.78;1.80;;;7.10;99.90;;;;;;5093794;28;20062;-83
2023/11/26 10:55:35;;;;;;;14.20;1.88;;;7.10;99.90;;;;;;5076264;28;20056;-78
2023/11/26 10:58:28;;;;;;;8.18;1.60;;;7.10;99.90;;;;;;5063085;28;20056;-76
2023/11/26 11:01:00;;;;;;;9.77;1.70;;;7.10;99.90;;;;;;5058407;28;20051;-75
2023/11/26 11:03:27;;;;;;;7.38;1.90;;;7.10;99.90;;;;;;5065595;28;20052;-76
2023/11/26 11:05:54;;;;;;;9.00;1.65;;;7.10;99.90;;;;;;5063901;28;20144;-77
2023/11/26 11:08:22;;;;;;;10.10;1.80;;;7.20;99.90;;;;;;5064975;28;20048;-76
2023/11/26 11:11:11;;;;;;;9.18;1.75;;;7.20;99.90;;;;;;5065967;28;20194;-76
2023/11/26 11:13:38;;;;;;;8.00;1.33;;;7.20;99.90;;;;;;5078076;28;20135;-76
2023/11/26 11:16:04;;;;;;;8.50;1.50;;;7.20;99.90;;;;;;5067053;28;20036;-76
2023/11/26 11:18:31;;;;;;;5.65;1.83;;;7.20;99.90;;;;;;5068502;28;20098;-76
2023/11/26 11:21:05;;;;;;;8.15;1.92;;;7.20;99.90;;;;;;5042123;28;20123;-76
2023/11/26 11:23:31;;;;;;;6.63;1.67;;;7.20;99.90;;;;;;5066245;28;20086;-76
2023/11/26 11:25:57;;;;;;;7.20;1.13;;;7.20;99.90;;;;;;5077876;28;20043;-76
2023/11/26 11:28:47;;;;;;;4.30;1.23;;;7.20;99.90;;;;;;5062725;28;20032;-75
2023/11/26 11:31:18;;;;;;;7.53;1.45;;;7.10;99.90;;;;;;5065799;28;20146;-76
2023/11/26 11:33:57;;;;;;;10.52;1.25;;;7.20;99.90;;;;;;5065821;28;20094;-75
2023/11/26 11:36:41;;;;;;;3.88;1.35;;;7.10;99.90;;;;;;5077396;28;20048;-75
2023/11/26 11:39:14;;;;;;;10.38;1.90;;;7.10;99.90;;;;;;5065437;28;20044;-76
2023/11/26 11:42:02;;;;;;;4.93;0.95;;;7.00;99.90;;;;;;5076315;28;20509;-76
2023/11/26 11:44:36;;;;;;;5.95;1.13;;;7.10;99.90;;;;;;5066462;28;20040;-76
2023/11/26 11:47:04;;;;;;;6.20;2.00;;;7.00;99.90;;;;;;5077472;28;20036;-76
2023/11/26 11:49:45;;;;;;;6.03;2.45;;;7.00;99.90;;;;;;5066900;28;20039;-76
2023/11/26 11:52:12;;;;;;;9.30;2.72;;;7.10;99.90;;;;;;5064349;28;20032;-76
2023/11/26 11:54:59;;;;;;;7.32;2.60;;;7.10;99.90;;;;;;5064345;28;20036;-76
2023/11/26 11:57:27;;;;;;;9.40;1.55;;;7.10;99.90;;;;;;5074478;28;20297;-76
2023/11/26 11:59:55;;;;;;;8.52;1.73;;;7.10;99.90;;;;;;5052017;28;20799;-76
2023/11/26 12:02:24;;;;;;;3.37;0.97;;;7.10;99.90;;;;;;5033983;28;20040;-76
2023/11/26 12:04:50;;;;;;;3.65;1.05;;;7.20;99.90;;;;;;5049267;28;20044;-76
2023/11/26 12:07:18;;;;;;;4.20;0.80;;;7.20;99.90;;;;;;5064348;28;20128;-76
2023/11/26 12:09:47;;;;;;;2.78;0.75;;;7.10;99.90;;;;;;5052367;28;20105;-76
2023/11/26 12:12:19;;;;;;;5.63;0.90;;;7.10;99.90;;;;;;5050715;28;20048;-76
2023/11/26 12:14:45;;;;;;;4.15;0.98;;;7.10;99.90;;;;;;5052588;28;20037;-76
2023/11/26 12:17:11;;;;;;;6.30;1.50;;;7.10;99.90;;;;;;5050790;28;20036;-76
2023/11/26 12:19:42;;;;;;;6.40;2.50;;;7.00;99.90;;;;;;5049680;28;20512;-76
2023/11/26 12:22:09;;;;;;;7.60;3.03;;;7.10;99.90;;;;;;5051961;28;20055;-76
2023/11/26 12:24:37;;;;;;;6.53;2.03;;;7.10;99.90;;;;;;5050818;28;20556;-75
2023/11/26 12:27:03;;;;;;;3.92;1.55;;;7.10;99.90;;;;;;5052550;28;20097;-77
2023/11/26 12:29:33;;;;;;;3.80;1.42;;;7.10;99.90;;;;;;5045245;28;20045;-76
2023/11/26 12:32:05;;;;;;;2.35;0.88;;;7.10;99.90;;;;;;5036828;28;20076;-76
2023/11/26 12:34:39;;;;;;;3.33;0.80;;;7.10;99.90;;;;;;5047090;28;20055;-76
2023/11/26 12:37:10;;;;;;;3.80;0.80;;;7.00;99.90;;;;;;5045584;28;20059;-76
2023/11/26 12:39:38;;;;;;;3.80;1.25;;;7.10;99.90;;;;;;4907892;28;23030;-76
2023/11/26 12:42:04;;;;;;;4.85;0.80;;;7.10;99.90;;;;;;4974996;28;20042;-76
2023/11/26 12:44:34;;;;;;;5.68;0.90;;;7.10;99.90;;;;;;5000007;28;20045;-76
2023/11/26 12:47:10;;;;;;;4.70;1.25;;;7.10;99.90;;;;;;5024968;28;20045;-75
2023/11/26 12:49:37;;;;;;;3.50;0.85;;;7.10;99.90;;;;;;5007136;28;20052;-76
2023/11/26 12:52:10;;;;;;;5.18;1.30;;;7.10;99.90;;;;;;5007324;28;20076;-77
2023/11/26 12:54:36;;;;;;;2.42;1.13;;;7.20;99.90;;;;;;4981979;28;20050;-76
2023/11/26 12:57:03;;;;;;;5.28;1.60;;;7.20;99.90;;;;;;5011383;28;20315;-76
2023/11/26 12:59:33;;;;;;;2.13;1.10;;;7.10;99.90;;;;;;5027598;28;20112;-77
2023/11/26 13:02:12;;;;;;;3.15;0.80;;;7.20;99.90;;;;;;5007444;28;20049;-77
2023/11/26 13:04:37;;;;;;;5.07;0.60;;;7.20;99.90;;;;;;5009793;28;20408;-75
2023/11/26 13:07:04;;;;;;;5.40;1.27;;;7.20;99.90;;;;;;4994520;28;20048;-75
2023/11/26 13:09:30;;;;;;;1.67;1.25;;;7.20;99.90;;;;;;5009444;28;20483;-82